createdAt,value
2017-10-03T00:00:08.116Z,87.20
2017-10-03T00:03:17.108Z,87.50
2017-10-03T00:06:18.464Z,87.20
2017-10-03T00:09:19.866Z,87.10
2017-10-03T00:12:22.193Z,86.80
2017-10-03T00:15:23.583Z,85.70
2017-10-03T00:18:26.133Z,86.90
2017-10-03T00:21:27.522Z,86.80
2017-10-03T00:24:28.899Z,87.00
2017-10-03T00:27:30.244Z,86.80
2017-10-03T00:30:31.689Z,86.30
2017-10-03T00:33:33.098Z,85.90
2017-10-03T00:36:34.531Z,86.20
2017-10-03T00:39:36.083Z,87.40
2017-10-03T00:42:37.517Z,86.80
2017-10-03T00:45:39.008Z,86.30
2017-10-03T00:48:40.418Z,87.00
2017-10-03T00:51:41.893Z,86.70
2017-10-03T00:54:43.288Z,86.20
2017-10-03T00:57:44.731Z,85.30
2017-10-03T01:00:47.180Z,86.00
2017-10-03T01:03:48.565Z,85.90
2017-10-03T01:06:50.705Z,86.90
2017-10-03T01:09:52.096Z,86.40
2017-10-03T01:12:53.553Z,86.50
2017-10-03T01:15:55.106Z,86.90
2017-10-03T01:18:56.598Z,86.80
2017-10-03T01:21:58.067Z,86.70
2017-10-03T01:24:59.440Z,87.30
2017-10-03T01:28:01.749Z,87.90
2017-10-03T01:31:03.180Z,87.20
2017-10-03T01:34:04.621Z,87.10
2017-10-03T01:37:06.837Z,88.80
2017-10-03T01:40:08.354Z,88.40
2017-10-03T01:43:10.587Z,88.20
2017-10-03T01:46:11.962Z,87.70
2017-10-03T01:49:14.133Z,88.60
2017-10-03T01:52:16.272Z,87.70
2017-10-03T01:55:17.719Z,87.50
2017-10-03T01:58:19.124Z,88.40
2017-10-03T02:01:20.516Z,88.00
2017-10-03T02:04:21.946Z,88.10
2017-10-03T02:07:23.355Z,87.30
2017-10-03T02:10:24.788Z,85.90
2017-10-03T02:13:26.207Z,87.00
2017-10-03T02:16:27.604Z,87.00
2017-10-03T02:19:28.970Z,84.60
2017-10-03T02:22:31.103Z,85.10
2017-10-03T02:25:32.869Z,84.80
2017-10-03T02:28:34.224Z,85.60
2017-10-03T02:31:35.627Z,86.40
2017-10-03T02:34:37.055Z,85.20
2017-10-03T02:37:39.219Z,84.70
2017-10-03T02:40:41.319Z,85.60
2017-10-03T02:43:42.736Z,84.80
2017-10-03T02:46:44.891Z,86.40
2017-10-03T02:49:46.258Z,85.80
2017-10-03T02:52:48.385Z,85.60
2017-10-03T02:55:49.704Z,85.40
2017-10-03T02:58:51.131Z,86.40
2017-10-03T03:01:53.283Z,87.00
2017-10-03T03:04:54.831Z,86.70
2017-10-03T03:07:56.342Z,86.20
2017-10-03T03:10:57.718Z,87.20
2017-10-03T03:13:59.105Z,88.10
2017-10-03T03:17:00.448Z,87.40
2017-10-03T03:20:01.867Z,86.90
2017-10-03T03:23:03.226Z,87.60
2017-10-03T03:26:04.618Z,88.40
2017-10-03T03:29:06.866Z,88.70
2017-10-03T03:32:08.281Z,88.50
2017-10-03T03:35:09.671Z,88.60
2017-10-03T03:38:11.032Z,88.00
2017-10-03T03:41:12.420Z,88.20
2017-10-03T03:44:13.793Z,88.40
2017-10-03T03:47:15.172Z,87.50
2017-10-03T03:50:16.592Z,88.40
2017-10-03T03:53:17.980Z,88.40
2017-10-03T03:56:19.369Z,88.10
2017-10-03T03:59:20.754Z,87.90
2017-10-03T04:02:22.108Z,87.70
2017-10-03T04:05:23.496Z,88.50
2017-10-03T04:08:25.666Z,88.00
2017-10-03T04:11:27.980Z,88.50
2017-10-03T04:14:29.352Z,88.30
2017-10-03T04:17:30.845Z,88.20
2017-10-03T04:20:32.968Z,88.70
2017-10-03T04:23:34.372Z,88.50
2017-10-03T04:26:36.546Z,88.80
2017-10-03T04:29:37.986Z,88.40
2017-10-03T04:32:40.430Z,88.40
2017-10-03T04:35:41.779Z,88.10
2017-10-03T04:38:43.200Z,88.00
2017-10-03T04:41:44.626Z,88.00
2017-10-03T04:44:46.794Z,88.20
2017-10-03T04:47:48.939Z,88.40
2017-10-03T04:50:50.360Z,88.20
2017-10-03T04:53:51.751Z,88.40
2017-10-03T04:56:53.848Z,88.10
2017-10-03T04:59:55.270Z,87.30
2017-10-03T05:02:57.414Z,88.20
2017-10-03T05:05:58.844Z,87.80
2017-10-03T05:09:00.985Z,87.30
2017-10-03T05:12:02.383Z,86.90
2017-10-03T05:15:03.789Z,87.50
2017-10-03T05:18:05.155Z,87.30
2017-10-03T05:21:06.683Z,87.40
2017-10-03T05:24:08.090Z,87.00
2017-10-03T05:27:09.491Z,87.00
2017-10-03T05:30:10.832Z,87.30
2017-10-03T05:33:12.948Z,87.70
2017-10-03T05:36:14.339Z,87.60
2017-10-03T05:39:16.507Z,87.50
2017-10-03T05:42:18.701Z,87.90
2017-10-03T05:45:20.118Z,87.70
2017-10-03T05:48:21.923Z,87.30
2017-10-03T05:51:23.325Z,86.50
2017-10-03T05:54:24.725Z,87.10
2017-10-03T05:57:26.141Z,87.20
2017-10-03T06:00:27.534Z,88.00
2017-10-03T06:03:29.019Z,88.60
2017-10-03T06:06:30.402Z,88.60
2017-10-03T06:09:32.550Z,88.60
2017-10-03T06:12:33.908Z,88.30
2017-10-03T06:15:35.355Z,87.80
2017-10-03T06:18:36.732Z,87.70
2017-10-03T06:21:38.851Z,87.90
2017-10-03T06:24:40.269Z,87.80
2017-10-03T06:27:41.641Z,87.90
2017-10-03T06:30:43.047Z,88.30
2017-10-03T06:33:45.153Z,88.70
2017-10-03T06:36:46.573Z,88.00
2017-10-03T06:39:47.977Z,88.00
2017-10-03T06:42:50.211Z,88.60
2017-10-03T06:45:51.804Z,88.40
2017-10-03T06:48:53.190Z,88.60
2017-10-03T06:51:55.322Z,88.90
2017-10-03T06:54:56.723Z,88.20
2017-10-03T06:57:58.904Z,88.30
2017-10-03T07:01:00.308Z,87.70
2017-10-03T07:04:01.984Z,88.70
2017-10-03T07:07:03.304Z,87.90
2017-10-03T07:10:04.703Z,89.30
2017-10-03T07:13:07.141Z,88.50
2017-10-03T07:16:08.593Z,88.30
2017-10-03T07:19:09.959Z,88.90
2017-10-03T07:22:11.275Z,89.00
2017-10-03T07:25:12.696Z,88.20
2017-10-03T07:28:14.086Z,89.00
2017-10-03T07:31:15.879Z,88.30
2017-10-03T07:34:17.589Z,89.00
2017-10-03T07:37:19.127Z,89.40
2017-10-03T07:40:20.531Z,90.00
2017-10-03T07:43:21.957Z,89.70
2017-10-03T07:46:23.362Z,89.30
2017-10-03T07:49:28.155Z,90.20
2017-10-03T07:52:29.657Z,89.30
2017-10-03T07:55:31.056Z,89.70
2017-10-03T07:58:32.438Z,89.00
2017-10-03T08:01:34.602Z,89.30
2017-10-03T08:04:36.714Z,90.10
2017-10-03T08:07:38.448Z,89.30
2017-10-03T08:10:39.870Z,89.30
2017-10-03T08:13:41.268Z,89.50
2017-10-03T08:16:42.806Z,89.90
2017-10-03T08:19:44.275Z,88.00
2017-10-03T08:22:45.877Z,89.00
2017-10-03T08:25:47.259Z,88.10
2017-10-03T08:28:49.389Z,88.60
2017-10-03T08:31:50.727Z,88.40
2017-10-03T08:34:52.114Z,89.00
2017-10-03T08:37:53.499Z,89.20
2017-10-03T08:40:55.310Z,88.20
2017-10-03T08:43:56.935Z,88.20
2017-10-03T08:46:58.425Z,87.60
2017-10-03T08:49:59.931Z,88.00
2017-10-03T08:53:01.365Z,88.20
2017-10-03T08:56:03.848Z,87.50
2017-10-03T08:59:05.459Z,87.30
2017-10-03T09:02:07.117Z,87.90
2017-10-03T09:05:08.697Z,87.70
2017-10-03T09:08:11.096Z,87.80
2017-10-03T09:11:13.002Z,87.50
2017-10-03T09:14:14.856Z,87.40
2017-10-03T09:17:16.375Z,87.70
2017-10-03T09:20:17.801Z,87.40
2017-10-03T09:23:19.915Z,88.10
2017-10-03T09:26:21.385Z,87.70
2017-10-03T09:29:22.798Z,87.30
2017-10-03T09:32:24.192Z,87.30
2017-10-03T09:35:25.591Z,87.70
2017-10-03T09:38:26.928Z,86.60
2017-10-03T09:41:29.077Z,88.20
2017-10-03T09:44:30.448Z,88.00
2017-10-03T09:47:32.515Z,86.60
2017-10-03T09:50:34.656Z,86.20
2017-10-03T09:53:35.980Z,86.10
2017-10-03T09:56:37.383Z,84.30
2017-10-03T09:59:39.512Z,83.40
2017-10-03T10:02:40.908Z,83.20
2017-10-03T10:05:43.028Z,81.60
2017-10-03T10:08:44.371Z,81.50
2017-10-03T10:11:45.749Z,80.80
2017-10-03T10:14:47.139Z,81.40
2017-10-03T10:17:48.487Z,81.50
2017-10-03T10:20:49.888Z,81.70
2017-10-03T10:23:51.204Z,80.50
2017-10-03T10:26:52.557Z,80.10
2017-10-03T10:29:53.926Z,81.70
2017-10-03T10:32:55.252Z,80.70
2017-10-03T10:35:56.637Z,80.40
2017-10-03T10:38:57.969Z,78.30
2017-10-03T10:41:59.343Z,80.40
2017-10-03T10:45:00.727Z,80.40
2017-10-03T10:48:02.815Z,78.90
2017-10-03T10:51:04.208Z,78.90
2017-10-03T10:54:05.584Z,78.60
2017-10-03T10:57:07.065Z,77.00
2017-10-03T11:00:08.719Z,76.80
2017-10-03T11:03:10.768Z,73.30
2017-10-03T11:06:12.884Z,74.30
2017-10-03T11:09:14.240Z,74.00
2017-10-03T11:12:15.643Z,76.40
2017-10-03T11:15:17.744Z,74.20
2017-10-03T11:18:19.106Z,74.10
2017-10-03T11:21:20.541Z,73.80
2017-10-03T11:24:35.856Z,74.00
2017-10-03T11:27:37.884Z,76.20
2017-10-03T11:30:40.016Z,78.70
2017-10-03T11:33:41.355Z,78.60
2017-10-03T11:36:42.735Z,79.10
2017-10-03T11:39:44.075Z,79.60
2017-10-03T11:42:45.522Z,78.60
2017-10-03T11:45:46.917Z,77.80
2017-10-03T11:48:48.222Z,76.90
2017-10-03T11:51:49.646Z,78.60
2017-10-03T11:54:51.763Z,79.90
2017-10-03T11:57:53.163Z,79.80
2017-10-03T12:00:54.576Z,78.20
2017-10-03T12:03:55.911Z,78.70
2017-10-03T12:06:57.379Z,77.60
2017-10-03T12:09:58.809Z,78.20
2017-10-03T12:13:00.184Z,77.10
2017-10-03T12:16:01.580Z,77.30
2017-10-03T12:19:02.928Z,77.00
2017-10-03T12:22:04.364Z,76.50
2017-10-03T12:25:05.703Z,76.10
2017-10-03T12:28:07.089Z,75.80
2017-10-03T12:31:08.481Z,73.80
2017-10-03T12:34:09.864Z,76.30
2017-10-03T12:37:11.255Z,74.70
2017-10-03T12:40:13.324Z,76.60
2017-10-03T12:43:15.516Z,76.60
2017-10-03T12:46:16.858Z,76.40
2017-10-03T12:49:18.223Z,77.20
2017-10-03T12:52:19.689Z,78.70
2017-10-03T12:55:21.023Z,82.70
2017-10-03T12:58:22.479Z,86.40
2017-10-03T13:01:23.807Z,85.00
2017-10-03T13:04:25.404Z,86.70
2017-10-03T13:07:26.764Z,87.40
2017-10-03T13:10:28.121Z,86.10
2017-10-03T13:13:29.629Z,87.40
2017-10-03T13:16:32.255Z,86.30
2017-10-03T13:19:35.233Z,87.50
2017-10-03T13:22:37.269Z,87.30
2017-10-03T13:25:38.896Z,89.40
2017-10-03T13:28:41.004Z,87.20
2017-10-03T13:31:42.372Z,86.90
2017-10-03T13:34:44.336Z,89.30
2017-10-03T13:37:45.977Z,88.00
2017-10-03T13:40:48.398Z,86.70
2017-10-03T13:43:50.877Z,85.20
2017-10-03T13:46:54.713Z,84.30
2017-10-03T13:49:57.493Z,84.00
2017-10-03T13:53:00.266Z,84.50
2017-10-03T13:56:02.865Z,85.80
2017-10-03T13:59:05.540Z,83.50
2017-10-03T14:02:08.250Z,83.50
2017-10-03T14:05:09.872Z,83.10
2017-10-03T14:08:11.529Z,82.70
2017-10-03T14:11:14.165Z,82.60
2017-10-03T14:14:15.942Z,82.40
2017-10-03T14:17:18.904Z,80.00
2017-10-03T14:20:21.104Z,80.50
2017-10-03T14:23:22.925Z,79.40
2017-10-03T14:26:26.703Z,77.40
2017-10-03T14:29:30.597Z,75.20
2017-10-03T14:32:32.086Z,74.90
2017-10-03T14:35:34.924Z,73.60
2017-10-03T14:38:37.217Z,73.60
2017-10-03T14:41:39.588Z,76.70
2017-10-03T14:44:41.739Z,76.90
2017-10-03T14:47:44.730Z,75.30
2017-10-03T14:50:46.697Z,75.50
2017-10-03T14:53:48.481Z,78.90
2017-10-03T14:56:51.352Z,80.50
2017-10-03T14:59:55.150Z,78.50
2017-10-03T15:02:57.319Z,82.70
2017-10-03T15:05:59.414Z,81.30
2017-10-03T15:09:00.708Z,81.10
2017-10-03T15:12:02.100Z,80.00
2017-10-03T15:15:04.169Z,78.80
2017-10-03T15:18:06.316Z,79.50
2017-10-03T15:21:07.935Z,79.40
2017-10-03T15:24:09.308Z,81.20
2017-10-03T15:27:10.676Z,80.90
2017-10-03T15:30:12.009Z,80.90
2017-10-03T15:33:14.105Z,78.90
2017-10-03T15:36:16.211Z,77.20
2017-10-03T15:39:17.620Z,77.00
2017-10-03T15:42:19.908Z,75.90
2017-10-03T15:45:22.039Z,75.60
2017-10-03T15:48:23.583Z,75.50
2017-10-03T15:51:24.930Z,73.70
2017-10-03T15:54:26.278Z,74.10
2017-10-03T15:57:27.617Z,72.30
2017-10-03T16:00:29.007Z,74.40
2017-10-03T16:03:30.340Z,73.60
2017-10-03T16:06:32.453Z,72.90
2017-10-03T16:09:34.545Z,74.10
2017-10-03T16:12:35.881Z,73.90
2017-10-03T16:15:37.298Z,73.70
2017-10-03T16:18:38.619Z,73.50
2017-10-03T16:21:40.119Z,73.50
2017-10-03T16:24:42.209Z,74.00
2017-10-03T16:27:43.585Z,73.80
2017-10-03T16:30:44.944Z,75.00
2017-10-03T16:33:46.312Z,74.30
2017-10-03T16:36:47.651Z,74.10
2017-10-03T16:39:49.377Z,74.30
2017-10-03T16:42:51.148Z,74.30
2017-10-03T16:45:52.475Z,74.70
2017-10-03T16:48:53.866Z,73.70
2017-10-03T16:51:55.812Z,74.30
2017-10-03T16:54:57.196Z,75.60
2017-10-03T16:57:58.513Z,77.10
2017-10-03T17:00:59.845Z,76.40
2017-10-03T17:04:01.164Z,75.40
2017-10-03T17:07:03.293Z,75.80
2017-10-03T17:10:05.199Z,75.30
2017-10-03T17:13:06.640Z,76.70
2017-10-03T17:16:08.105Z,78.60
2017-10-03T17:19:10.704Z,79.10
2017-10-03T17:22:12.107Z,78.90
2017-10-03T17:25:15.663Z,79.10
2017-10-03T17:28:18.007Z,79.00
2017-10-03T17:31:20.959Z,78.10
2017-10-03T17:34:22.327Z,78.50
2017-10-03T17:37:23.669Z,79.50
2017-10-03T17:40:25.751Z,79.40
2017-10-03T17:43:28.066Z,79.30
2017-10-03T17:46:30.453Z,78.90
2017-10-03T17:49:31.860Z,79.10
2017-10-03T17:52:33.751Z,80.10
2017-10-03T17:55:35.105Z,79.30
2017-10-03T17:58:36.583Z,78.60
2017-10-03T18:01:37.904Z,79.00
2017-10-03T18:04:39.695Z,79.30
2017-10-03T18:07:41.037Z,79.30
2017-10-03T18:10:42.487Z,79.10
2017-10-03T18:13:43.979Z,79.50
2017-10-03T18:16:45.799Z,79.60
2017-10-03T18:19:47.160Z,79.90
2017-10-03T18:22:48.532Z,79.60
2017-10-03T18:25:50.133Z,79.50
2017-10-03T18:28:52.192Z,79.50
2017-10-03T18:31:54.265Z,78.40
2017-10-03T18:34:56.309Z,78.60
2017-10-03T18:37:57.647Z,78.50
2017-10-03T18:40:59.065Z,79.10
2017-10-03T18:44:00.589Z,79.40
2017-10-03T18:47:01.960Z,79.50
2017-10-03T18:50:03.372Z,79.80
2017-10-03T18:53:04.704Z,79.00
2017-10-03T18:56:06.009Z,79.20
2017-10-03T18:59:07.382Z,78.70
2017-10-03T19:02:08.732Z,77.90
2017-10-03T19:05:10.082Z,78.80
2017-10-03T19:08:11.397Z,79.40
2017-10-03T19:11:12.748Z,79.40
2017-10-03T19:14:14.057Z,79.00
2017-10-03T19:17:15.427Z,79.30
2017-10-03T19:20:17.513Z,79.60
2017-10-03T19:23:18.859Z,79.60
2017-10-03T19:26:20.961Z,79.60
2017-10-03T19:29:22.352Z,79.60
2017-10-03T19:32:24.190Z,79.50
2017-10-03T19:35:25.516Z,79.60
2017-10-03T19:38:26.894Z,79.50
2017-10-03T19:41:28.307Z,80.10
2017-10-03T19:44:29.677Z,79.80
2017-10-03T19:47:31.021Z,79.30
2017-10-03T19:50:32.405Z,79.70
2017-10-03T19:53:33.880Z,79.50
2017-10-03T19:56:36.011Z,79.70
2017-10-03T19:59:38.161Z,78.60
2017-10-03T20:02:39.556Z,78.50
2017-10-03T20:05:41.157Z,79.20
2017-10-03T20:08:42.503Z,79.50
2017-10-03T20:11:43.842Z,79.00
2017-10-03T20:14:45.165Z,78.60
2017-10-03T20:17:46.559Z,79.00
2017-10-03T20:20:47.902Z,78.30
2017-10-03T20:23:49.253Z,78.60
2017-10-03T20:26:50.832Z,79.10
2017-10-03T20:29:52.219Z,79.00
2017-10-03T20:32:53.842Z,79.70
2017-10-03T20:35:55.306Z,79.40
2017-10-03T20:38:56.680Z,79.50
2017-10-03T20:41:58.093Z,79.70
2017-10-03T20:44:59.549Z,80.10
2017-10-03T20:48:00.950Z,80.40
2017-10-03T20:51:03.187Z,80.10
2017-10-03T20:54:04.692Z,79.50
2017-10-03T20:57:06.099Z,79.70
2017-10-03T21:00:07.740Z,79.70
2017-10-03T21:03:09.179Z,80.00
2017-10-03T21:06:10.636Z,80.30
2017-10-03T21:09:12.207Z,80.10
2017-10-03T21:12:13.752Z,79.80
2017-10-03T21:15:15.205Z,80.60
2017-10-03T21:18:16.671Z,80.50
2017-10-03T21:21:19.344Z,79.80
2017-10-03T21:24:20.836Z,80.00
2017-10-03T21:27:23.219Z,79.80
2017-10-03T21:30:26.953Z,79.40
2017-10-03T21:33:28.610Z,78.60
2017-10-03T21:36:30.103Z,78.60
2017-10-03T21:39:32.388Z,79.10
2017-10-03T21:42:53.938Z,79.30
2017-10-03T21:45:56.204Z,80.20
2017-10-03T21:52:08.082Z,80.30
2017-10-03T21:55:09.640Z,79.60
2017-10-03T21:58:11.370Z,79.50
2017-10-03T22:01:12.855Z,78.70
2017-10-03T22:04:14.315Z,79.70
2017-10-03T22:07:17.088Z,78.30
2017-10-03T22:10:18.667Z,79.50
2017-10-03T22:13:20.090Z,78.70
2017-10-03T22:16:21.579Z,79.40
2017-10-03T22:19:23.804Z,78.70
2017-10-03T22:22:25.252Z,78.20
2017-10-03T22:25:26.717Z,77.20
2017-10-03T22:28:28.126Z,78.40
2017-10-03T22:31:29.570Z,78.60
2017-10-03T22:34:31.708Z,78.50
2017-10-03T22:37:33.146Z,78.20
2017-10-03T22:40:34.511Z,77.30
2017-10-03T22:43:35.944Z,77.80
2017-10-03T22:46:37.367Z,78.60
2017-10-03T22:49:38.828Z,77.80
2017-10-03T22:52:40.281Z,78.10
2017-10-03T22:55:41.675Z,78.60
2017-10-03T22:58:44.120Z,78.10
2017-10-03T23:01:45.618Z,78.70
2017-10-03T23:04:47.067Z,78.70
2017-10-03T23:07:48.510Z,77.80
2017-10-03T23:10:49.999Z,78.50
2017-10-03T23:13:51.811Z,78.20
2017-10-03T23:16:53.208Z,79.00
2017-10-03T23:19:55.385Z,77.50
2017-10-03T23:22:56.806Z,77.30
2017-10-03T23:25:58.290Z,78.20
2017-10-03T23:28:59.694Z,77.60
2017-10-03T23:32:01.224Z,79.00
2017-10-03T23:35:02.658Z,78.10
2017-10-03T23:38:04.087Z,78.00
2017-10-03T23:41:06.369Z,79.00
2017-10-03T23:44:07.761Z,78.10
2017-10-03T23:47:09.236Z,77.90
2017-10-03T23:50:10.702Z,78.60
2017-10-03T23:53:12.889Z,78.80
2017-10-03T23:56:15.047Z,78.10
2017-10-03T23:59:17.281Z,78.30
